Olmitz, Kansas
Current Conditions -  °F | °C
As of 10:55 PM on Saturday 22 Nov 2014 (Local Time) from KGBD Reporting Station
Overcast Overcast  
Wind Chill: 55°   Ceiling: 1200
Heat Index: 55°   Visibility: 10mi
Dew Point: 48°   Wind: 22mph
Humidity: 77%   Direction: 190°S
Pressure: 29.57"   Gusts: 30mph
Location:  38.52°N, 98.94°W
Report Text: KGBD 230455Z AUTO 19019G26KT 10SM OVC012 13/09 A2957 RMK AO1
Loading
Personal Weather Stations






























Interactive Weather Map New forecast layout! Learn more

10-Day Weather Forecast

Advertisements
Track Severe Weather on mobile